Time;durP1;ratioP1;P1;durP2;ratioP2;P2;SDS_P1;SDS_P2;PMS_P1;PMS_P2;Temp;Humidity;BMP_temperature;BMP_pressure;BME280_temperature;BME280_humidity;BME280_pressure;Samples;Min_cycle;Max_cycle;Signal;HPM_P1;HPM_P2
2022/07/08 00:01:33;;;;;;;9.00;1.58;;;18.80;81.30;;;;;;5130038;28;20080;-67
2022/07/08 00:03:59;;;;;;;12.02;1.80;;;18.80;81.50;;;;;;5132107;28;20039;-67
2022/07/08 00:06:25;;;;;;;13.30;1.50;;;18.80;81.50;;;;;;5131667;28;20042;-67
2022/07/08 00:08:51;;;;;;;7.68;1.77;;;18.90;81.60;;;;;;5132803;27;20019;-67
2022/07/08 00:11:17;;;;;;;9.57;1.70;;;18.80;81.70;;;;;;5136071;27;20046;-67
2022/07/08 00:13:43;;;;;;;10.13;1.35;;;18.90;82.00;;;;;;5135549;27;20043;-68
2022/07/08 00:16:09;;;;;;;17.02;1.95;;;18.80;82.20;;;;;;5134603;27;20058;-67
2022/07/08 00:18:34;;;;;;;12.30;2.17;;;18.80;83.20;;;;;;5135517;27;20419;-67
2022/07/08 00:21:00;;;;;;;8.68;1.77;;;18.80;83.70;;;;;;5135637;27;20027;-67
2022/07/08 00:23:26;;;;;;;9.85;1.52;;;18.80;83.30;;;;;;5117274;27;20054;-67
2022/07/08 00:25:52;;;;;;;7.10;1.38;;;18.80;83.70;;;;;;5135497;27;20062;-67
2022/07/08 00:28:17;;;;;;;9.57;1.73;;;18.80;84.00;;;;;;5135877;27;20023;-67
2022/07/08 00:30:43;;;;;;;9.93;2.10;;;18.70;84.10;;;;;;5127271;27;20020;-67
2022/07/08 00:33:09;;;;;;;5.13;1.10;;;18.70;84.20;;;;;;5135751;27;20073;-67
2022/07/08 00:35:35;;;;;;;8.77;1.63;;;18.70;84.20;;;;;;5135771;27;20016;-67
2022/07/08 00:38:01;;;;;;;12.68;2.67;;;18.70;84.30;;;;;;5134852;27;20038;-67
2022/07/08 00:40:27;;;;;;;13.52;1.50;;;18.70;84.40;;;;;;5135922;27;20031;-67
2022/07/08 00:42:52;;;;;;;11.82;1.92;;;18.70;84.50;;;;;;5134484;27;20035;-67
2022/07/08 00:45:18;;;;;;;10.23;1.83;;;18.70;84.60;;;;;;5124778;27;20065;-67
2022/07/08 00:47:45;;;;;;;5.70;1.42;;;18.60;84.60;;;;;;5130792;27;20012;-67
2022/07/08 00:50:11;;;;;;;10.40;2.13;;;18.60;84.70;;;;;;5127901;27;20371;-67
2022/07/08 00:52:43;;;;;;;11.02;1.77;;;18.60;84.70;;;;;;5135880;27;20502;-67
2022/07/08 00:55:09;;;;;;;13.52;2.20;;;18.60;84.70;;;;;;5134289;27;20039;-67
2022/07/08 00:57:37;;;;;;;8.02;1.67;;;18.60;85.00;;;;;;5135023;27;20049;-67
2022/07/08 01:00:04;;;;;;;8.43;1.48;;;18.60;84.60;;;;;;5134299;27;20047;-67
2022/07/08 01:02:30;;;;;;;11.05;1.90;;;18.50;84.50;;;;;;5128953;27;20062;-67
2022/07/08 01:04:56;;;;;;;6.75;2.08;;;18.50;84.50;;;;;;5134983;27;20031;-67
2022/07/08 01:07:22;;;;;;;8.63;1.77;;;18.50;84.40;;;;;;5134338;27;20031;-67
2022/07/08 01:09:48;;;;;;;14.65;2.40;;;18.40;84.30;;;;;;5135362;27;20034;-67
2022/07/08 01:12:14;;;;;;;7.07;1.42;;;18.40;84.20;;;;;;5133760;27;20051;-67
2022/07/08 01:14:40;;;;;;;9.88;1.50;;;18.40;84.10;;;;;;5135570;27;20126;-67
2022/07/08 01:17:05;;;;;;;11.63;1.88;;;18.40;84.00;;;;;;5133638;27;20035;-67
2022/07/08 01:19:37;;;;;;;12.45;2.00;;;18.40;83.90;;;;;;5134045;27;20027;-67
2022/07/08 01:22:03;;;;;;;8.45;1.90;;;18.40;83.80;;;;;;5132681;27;20059;-67
2022/07/08 01:24:29;;;;;;;11.52;1.50;;;18.40;83.70;;;;;;5133894;27;20134;-67
2022/07/08 01:26:56;;;;;;;10.00;1.48;;;18.30;83.70;;;;;;5133658;27;20103;-67
2022/07/08 01:29:22;;;;;;;9.20;1.75;;;18.30;83.70;;;;;;5134976;27;20371;-67
2022/07/08 01:31:52;;;;;;;11.93;2.08;;;18.30;83.80;;;;;;5133758;27;20038;-67
2022/07/08 01:34:18;;;;;;;9.90;1.40;;;18.30;84.00;;;;;;5134754;27;20059;-67
2022/07/08 01:36:44;;;;;;;10.52;1.45;;;18.20;84.00;;;;;;5133971;27;20043;-67
2022/07/08 01:39:10;;;;;;;8.80;1.50;;;18.20;84.10;;;;;;5134715;27;20035;-67
2022/07/08 01:41:35;;;;;;;8.82;1.80;;;18.20;84.30;;;;;;5133475;27;20117;-67
2022/07/08 01:44:01;;;;;;;11.57;1.60;;;18.10;84.30;;;;;;5134594;27;20046;-67
2022/07/08 01:46:27;;;;;;;4.25;1.40;;;18.10;84.50;;;;;;5133381;27;20027;-67
2022/07/08 01:48:52;;;;;;;8.02;2.00;;;18.10;84.60;;;;;;5134566;27;20068;-67
2022/07/08 01:51:18;;;;;;;11.05;1.65;;;18.10;84.60;;;;;;5133640;27;20062;-67
2022/07/08 01:53:44;;;;;;;4.57;1.15;;;18.10;84.70;;;;;;5134007;27;20473;-67
2022/07/08 01:56:12;;;;;;;14.68;1.70;;;18.10;84.80;;;;;;5133645;27;20122;-67
2022/07/08 01:58:38;;;;;;;8.30;1.73;;;18.10;84.80;;;;;;5134943;27;20031;-67
2022/07/08 02:01:04;;;;;;;4.50;1.20;;;18.00;84.80;;;;;;5132666;27;20075;-67
2022/07/08 02:03:30;;;;;;;8.02;1.52;;;18.00;84.60;;;;;;5133412;27;20554;-67
2022/07/08 02:05:56;;;;;;;5.72;1.10;;;18.00;84.70;;;;;;5133461;27;20037;-67
2022/07/08 02:08:23;;;;;;;10.07;1.80;;;18.00;84.80;;;;;;5133470;27;20035;-67
2022/07/08 02:13:33;;;;;;;7.68;1.33;;;17.90;85.00;;;;;;5134117;27;20027;-67
2022/07/08 02:15:58;;;;;;;9.00;2.00;;;17.80;85.00;;;;;;5132042;27;20041;-67
2022/07/08 02:18:24;;;;;;;8.35;1.70;;;17.80;85.10;;;;;;5134561;27;20112;-67
2022/07/08 02:20:51;;;;;;;9.52;1.77;;;17.80;85.20;;;;;;5132438;27;20038;-67
2022/07/08 02:23:16;;;;;;;7.53;1.42;;;17.80;85.40;;;;;;5121356;27;20376;-67
2022/07/08 02:25:42;;;;;;;8.05;1.88;;;17.70;85.70;;;;;;5131828;27;20081;-67
2022/07/08 02:28:08;;;;;;;8.60;1.70;;;17.70;85.80;;;;;;5131657;27;20031;-67
2022/07/08 02:30:33;;;;;;;6.82;1.70;;;17.60;85.90;;;;;;5127368;27;20028;-67
2022/07/08 02:32:59;;;;;;;10.82;2.22;;;17.60;86.00;;;;;;5134150;27;20023;-68
2022/07/08 02:35:25;;;;;;;7.93;1.63;;;17.60;86.10;;;;;;5133019;27;20448;-67
2022/07/08 02:37:50;;;;;;;4.35;1.42;;;17.60;86.20;;;;;;5132735;27;20023;-67
2022/07/08 02:40:16;;;;;;;6.55;1.10;;;17.60;86.30;;;;;;5133572;27;20047;-67
2022/07/08 02:42:42;;;;;;;8.90;1.35;;;17.60;86.10;;;;;;5132488;27;20019;-67
2022/07/08 02:45:08;;;;;;;3.25;1.17;;;17.50;85.90;;;;;;5133011;27;20201;-67
2022/07/08 02:47:34;;;;;;;6.63;1.40;;;17.60;85.80;;;;;;5133502;27;20019;-67
2022/07/08 02:50:00;;;;;;;7.05;1.95;;;17.40;85.60;;;;;;5130924;27;20035;-67
2022/07/08 02:52:25;;;;;;;6.65;1.38;;;17.40;85.60;;;;;;5134040;27;20036;-67
2022/07/08 02:54:51;;;;;;;8.73;1.77;;;17.40;85.80;;;;;;5132077;27;20031;-67
2022/07/08 02:57:17;;;;;;;4.32;1.17;;;17.30;85.80;;;;;;5121080;27;20028;-67
2022/07/08 02:59:44;;;;;;;7.68;1.90;;;17.30;85.80;;;;;;5133363;27;20055;-67
2022/07/08 03:02:09;;;;;;;11.32;1.98;;;17.30;85.80;;;;;;5131667;27;20061;-67
2022/07/08 03:04:35;;;;;;;6.15;1.40;;;17.30;85.90;;;;;;5132491;27;20039;-67
2022/07/08 03:07:01;;;;;;;5.97;1.35;;;17.20;86.00;;;;;;5132657;27;20030;-67
2022/07/08 03:09:26;;;;;;;7.97;1.45;;;17.20;86.30;;;;;;5133356;27;20126;-67
2022/07/08 03:11:52;;;;;;;3.17;1.30;;;17.20;86.50;;;;;;5131717;27;20027;-67
2022/07/08 03:14:18;;;;;;;13.20;2.28;;;17.20;86.60;;;;;;5132440;27;20030;-67
2022/07/08 03:16:43;;;;;;;12.60;3.08;;;17.20;86.70;;;;;;5131935;27;20015;-67
2022/07/08 03:19:09;;;;;;;6.32;1.50;;;17.20;87.00;;;;;;5131738;27;20560;-67
2022/07/08 03:21:35;;;;;;;7.30;1.73;;;17.20;87.30;;;;;;5130961;27;20538;-67
2022/07/08 03:24:00;;;;;;;8.27;2.20;;;17.10;87.60;;;;;;5133164;27;20039;-67
2022/07/08 03:26:26;;;;;;;6.35;1.60;;;17.10;87.80;;;;;;5130857;27;20414;-67
2022/07/08 03:28:52;;;;;;;8.52;1.65;;;17.10;88.10;;;;;;5132786;27;20051;-68
2022/07/08 03:31:18;;;;;;;8.80;2.45;;;17.10;88.30;;;;;;5132064;27;20023;-67
2022/07/08 03:33:43;;;;;;;13.38;1.70;;;17.00;88.50;;;;;;5131449;27;20042;-67
2022/07/08 03:36:09;;;;;;;9.80;1.70;;;17.00;88.50;;;;;;5126674;27;20027;-67
2022/07/08 03:38:35;;;;;;;4.00;1.40;;;17.00;88.20;;;;;;5132875;28;20152;-67
2022/07/08 03:41:19;;;;;;;5.15;1.55;;;17.00;87.90;;;;;;5132063;28;20037;-67
2022/07/08 03:43:46;;;;;;;3.92;1.90;;;17.00;87.80;;;;;;5134069;27;20042;-66
2022/07/08 03:46:12;;;;;;;8.50;1.60;;;16.90;87.40;;;;;;5134250;27;20024;-67
2022/07/08 03:48:37;;;;;;;2.38;1.23;;;16.90;87.40;;;;;;5136297;27;20031;-67
2022/07/08 03:51:03;;;;;;;6.13;1.50;;;16.90;87.50;;;;;;5136172;27;20030;-67
2022/07/08 03:53:29;;;;;;;5.00;1.38;;;16.90;87.80;;;;;;5135641;27;20394;-67
2022/07/08 03:55:55;;;;;;;10.73;1.55;;;16.80;87.80;;;;;;5136625;27;20034;-67
2022/07/08 03:58:21;;;;;;;10.23;2.20;;;16.90;87.90;;;;;;5136382;27;20031;-68
2022/07/08 04:00:46;;;;;;;8.35;1.63;;;16.80;87.60;;;;;;5135454;27;20068;-68
2022/07/08 04:03:12;;;;;;;8.10;1.70;;;16.80;87.40;;;;;;5135244;27;20051;-68
2022/07/08 04:05:38;;;;;;;5.75;1.42;;;16.80;87.20;;;;;;5135778;27;20039;-68
2022/07/08 04:08:05;;;;;;;5.70;1.55;;;16.80;87.20;;;;;;5135358;27;20030;-68
2022/07/08 04:10:30;;;;;;;8.27;1.80;;;16.80;87.20;;;;;;5134913;27;20070;-67
2022/07/08 04:12:56;;;;;;;16.33;2.25;;;16.70;87.20;;;;;;5136048;27;20047;-67
2022/07/08 04:15:22;;;;;;;14.38;2.20;;;16.70;87.10;;;;;;5134424;27;20538;-67
2022/07/08 04:17:48;;;;;;;9.98;1.52;;;16.70;87.20;;;;;;5136680;27;20340;-67
2022/07/08 04:20:13;;;;;;;8.95;1.67;;;16.70;87.00;;;;;;5135743;27;20092;-67
2022/07/08 04:22:39;;;;;;;12.70;2.30;;;16.70;87.10;;;;;;5135598;27;20034;-67
2022/07/08 04:25:06;;;;;;;7.90;1.70;;;16.60;87.10;;;;;;5135306;27;20074;-67
2022/07/08 04:27:32;;;;;;;8.07;1.65;;;16.60;87.30;;;;;;5136376;27;20031;-68
2022/07/08 04:29:58;;;;;;;9.27;1.65;;;16.60;88.10;;;;;;5132144;27;20034;-67
2022/07/08 04:32:24;;;;;;;8.27;1.42;;;16.60;87.50;;;;;;5136261;27;20072;-67
2022/07/08 04:34:51;;;;;;;3.80;1.02;;;16.60;87.60;;;;;;5135803;27;20065;-67
2022/07/08 04:37:17;;;;;;;4.40;1.15;;;16.60;87.40;;;;;;5135297;27;20494;-67
2022/07/08 04:39:43;;;;;;;3.55;1.50;;;16.60;87.40;;;;;;5135498;27;20039;-68
2022/07/08 04:42:09;;;;;;;7.07;1.55;;;16.60;87.50;;;;;;5135044;27;20027;-67
2022/07/08 04:44:34;;;;;;;12.38;1.70;;;16.60;87.70;;;;;;5135077;27;20035;-67
2022/07/08 04:47:00;;;;;;;4.78;1.70;;;16.60;87.70;;;;;;5135959;27;20417;-67
2022/07/08 04:49:26;;;;;;;4.38;1.73;;;16.60;88.60;;;;;;5134954;27;20103;-67
2022/07/08 04:51:52;;;;;;;9.65;1.75;;;16.60;88.20;;;;;;5135287;27;20047;-67
2022/07/08 04:54:17;;;;;;;5.85;1.73;;;16.60;88.60;;;;;;5132901;27;20081;-67
2022/07/08 04:56:43;;;;;;;9.35;1.60;;;16.60;88.80;;;;;;5134279;27;20027;-67
2022/07/08 04:59:09;;;;;;;3.70;1.30;;;16.60;88.80;;;;;;5122278;27;20069;-67
2022/07/08 05:01:35;;;;;;;7.15;1.20;;;16.60;88.60;;;;;;5135507;27;20493;-68
2022/07/08 05:04:00;;;;;;;1.98;1.08;;;16.60;88.50;;;;;;5134118;27;20054;-67
2022/07/08 05:06:26;;;;;;;7.05;1.52;;;16.70;88.20;;;;;;5122365;27;20031;-68
2022/07/08 05:08:52;;;;;;;4.38;0.77;;;16.70;88.30;;;;;;5135078;27;20038;-68
2022/07/08 05:11:17;;;;;;;8.32;1.55;;;16.70;88.30;;;;;;5128405;27;20027;-67
2022/07/08 05:13:43;;;;;;;8.35;1.50;;;16.60;88.60;;;;;;5129200;27;20038;-67
2022/07/08 05:16:09;;;;;;;10.63;1.92;;;16.60;88.70;;;;;;5134670;27;20099;-67
2022/07/08 05:18:35;;;;;;;5.07;1.42;;;16.60;88.90;;;;;;5134597;27;20198;-69
2022/07/08 05:21:01;;;;;;;4.80;2.10;;;16.70;89.60;;;;;;5134838;27;20503;-67
2022/07/08 05:23:27;;;;;;;3.65;1.25;;;16.70;89.70;;;;;;5135028;27;20035;-68
2022/07/08 05:25:53;;;;;;;4.32;0.93;;;16.70;90.00;;;;;;5133979;27;20138;-67
2022/07/08 05:28:18;;;;;;;11.57;1.63;;;16.70;89.80;;;;;;5132422;27;20106;-68
2022/07/08 05:30:44;;;;;;;9.18;1.83;;;16.80;90.20;;;;;;5129939;27;20031;-67
2022/07/08 05:33:09;;;;;;;7.10;1.40;;;16.70;90.20;;;;;;5130708;27;20127;-67
2022/07/08 05:35:35;;;;;;;6.95;1.85;;;16.70;90.20;;;;;;5131359;27;20527;-67
2022/07/08 05:38:01;;;;;;;6.03;1.73;;;16.80;90.50;;;;;;5130694;27;20412;-68
2022/07/08 05:40:29;;;;;;;3.80;1.40;;;16.80;90.30;;;;;;5130110;27;20062;-68
2022/07/08 05:42:58;;;;;;;5.90;1.67;;;16.80;90.40;;;;;;5128803;27;20027;-69
2022/07/08 05:45:24;;;;;;;10.32;1.60;;;16.80;90.40;;;;;;5131656;27;20050;-69
2022/07/08 05:47:50;;;;;;;13.05;2.08;;;16.90;90.60;;;;;;5131531;27;20486;-68
2022/07/08 05:50:19;;;;;;;12.10;2.40;;;16.90;90.80;;;;;;5131929;27;20034;-68
2022/07/08 05:52:44;;;;;;;12.13;1.73;;;16.90;91.10;;;;;;5130978;27;20035;-67
2022/07/08 05:55:13;;;;;;;11.18;1.98;;;17.00;91.20;;;;;;5130936;27;20118;-69
2022/07/08 05:57:39;;;;;;;6.35;2.78;;;17.00;91.00;;;;;;5132705;27;20531;-68
2022/07/08 06:00:05;;;;;;;6.25;2.03;;;17.10;91.30;;;;;;5133358;27;20019;-71
2022/07/08 06:02:38;;;;;;;6.55;1.67;;;17.10;91.20;;;;;;5133958;27;20042;-71
2022/07/08 06:05:04;;;;;;;5.57;1.60;;;17.20;91.00;;;;;;5129446;27;20100;-67
2022/07/08 06:07:32;;;;;;;6.32;1.20;;;17.20;90.80;;;;;;5129217;27;20030;-68
2022/07/08 06:09:59;;;;;;;6.60;1.33;;;17.30;90.60;;;;;;5131272;27;20031;-68
2022/07/08 06:12:25;;;;;;;9.45;2.08;;;17.30;90.70;;;;;;5128643;27;20104;-69
2022/07/08 06:14:50;;;;;;;12.30;2.78;;;17.30;91.20;;;;;;5129101;27;20428;-68
2022/07/08 06:17:16;;;;;;;8.40;1.63;;;17.40;91.70;;;;;;5128703;27;20022;-67
2022/07/08 06:19:42;;;;;;;15.18;1.92;;;17.40;91.70;;;;;;5130632;27;20030;-68
2022/07/08 06:22:08;;;;;;;7.50;2.03;;;17.50;91.60;;;;;;5129838;27;20020;-67
2022/07/08 06:24:34;;;;;;;12.25;1.92;;;17.50;92.10;;;;;;5131207;27;20035;-67
2022/07/08 06:27:00;;;;;;;10.40;1.65;;;17.60;92.10;;;;;;5130229;27;20118;-67
2022/07/08 06:29:25;;;;;;;11.50;2.38;;;17.70;92.20;;;;;;5130400;27;20714;-67
2022/07/08 06:31:51;;;;;;;14.07;2.83;;;17.70;92.40;;;;;;5128701;27;20041;-68
2022/07/08 06:34:17;;;;;;;9.40;2.00;;;17.80;92.50;;;;;;5133794;27;20032;-70
2022/07/08 06:36:43;;;;;;;8.95;1.25;;;17.90;92.70;;;;;;5132374;27;20050;-69
2022/07/08 06:39:09;;;;;;;7.38;1.67;;;17.90;92.20;;;;;;5131367;27;20031;-68
2022/07/08 06:41:35;;;;;;;6.70;1.60;;;18.00;92.20;;;;;;5132672;27;20026;-68
2022/07/08 06:44:01;;;;;;;8.73;1.70;;;18.00;91.90;;;;;;5132992;27;20390;-68
2022/07/08 06:46:29;;;;;;;10.48;1.80;;;18.00;92.20;;;;;;5133127;27;20118;-68
2022/07/08 06:48:54;;;;;;;9.50;2.67;;;18.10;92.50;;;;;;5132514;27;20546;-68
2022/07/08 06:51:20;;;;;;;10.48;1.90;;;18.20;92.70;;;;;;5132331;27;20528;-68
2022/07/08 06:56:35;;;;;;;14.05;2.20;;;18.30;92.50;;;;;;5094023;27;20059;-68
2022/07/08 06:59:01;;;;;;;12.02;1.75;;;18.30;92.20;;;;;;5133391;27;20027;-68
2022/07/08 07:01:27;;;;;;;16.30;2.42;;;18.30;92.20;;;;;;5132940;27;20031;-68
2022/07/08 07:03:52;;;;;;;10.45;1.63;;;18.40;92.20;;;;;;5132258;27;20115;-68
2022/07/08 07:06:18;;;;;;;12.65;1.88;;;18.40;92.40;;;;;;5132408;27;20032;-68
2022/07/08 07:08:46;;;;;;;11.30;1.70;;;18.40;92.00;;;;;;5133659;27;20023;-68
2022/07/08 07:11:12;;;;;;;10.00;2.28;;;18.50;91.80;;;;;;5131612;27;20075;-68
2022/07/08 07:13:38;;;;;;;10.05;1.70;;;18.50;91.90;;;;;;5133500;27;20046;-68
2022/07/08 07:16:04;;;;;;;11.95;2.25;;;18.50;92.20;;;;;;5130057;27;20019;-68
2022/07/08 07:18:29;;;;;;;8.48;1.52;;;18.60;92.10;;;;;;5131624;27;20115;-68
2022/07/08 07:20:55;;;;;;;18.55;2.35;;;18.60;92.00;;;;;;5131969;27;20019;-68
2022/07/08 07:23:21;;;;;;;13.45;2.20;;;18.60;92.30;;;;;;5133229;27;20466;-68
2022/07/08 07:25:46;;;;;;;15.63;2.10;;;18.70;92.50;;;;;;5131451;27;20035;-68
2022/07/08 07:28:12;;;;;;;11.48;1.80;;;18.70;92.40;;;;;;5133098;27;20031;-68
2022/07/08 07:30:38;;;;;;;12.10;1.75;;;18.80;92.30;;;;;;5128371;27;20030;-68
2022/07/08 07:33:03;;;;;;;8.40;2.45;;;18.80;92.30;;;;;;5127491;27;20031;-68
2022/07/08 07:35:29;;;;;;;11.38;1.88;;;18.80;92.40;;;;;;5132967;27;20529;-69
2022/07/08 07:37:55;;;;;;;11.85;1.80;;;18.80;92.20;;;;;;5131789;27;20042;-68
2022/07/08 07:40:20;;;;;;;13.70;2.00;;;18.90;92.40;;;;;;5132500;28;20071;-68
2022/07/08 07:42:49;;;;;;;18.65;1.85;;;19.00;92.40;;;;;;5131680;28;20035;-66
2022/07/08 07:45:15;;;;;;;11.82;1.73;;;18.90;92.10;;;;;;5131728;28;20043;-66
2022/07/08 07:47:40;;;;;;;13.00;2.85;;;19.00;92.30;;;;;;5131758;28;20026;-66
2022/07/08 07:50:07;;;;;;;14.70;2.47;;;19.00;92.30;;;;;;5133038;28;20415;-67
2022/07/08 07:52:32;;;;;;;7.53;1.70;;;19.00;92.00;;;;;;5132079;28;20027;-67
2022/07/08 07:54:58;;;;;;;21.90;2.65;;;19.10;92.20;;;;;;5131747;28;20031;-67
2022/07/08 07:57:26;;;;;;;9.85;1.80;;;19.10;92.20;;;;;;5132716;28;20055;-67
2022/07/08 07:59:52;;;;;;;8.45;1.88;;;19.10;92.40;;;;;;5131415;28;20088;-67
2022/07/08 08:02:18;;;;;;;12.40;2.65;;;19.20;92.20;;;;;;5132183;28;20023;-67
2022/07/08 08:04:45;;;;;;;7.18;1.63;;;19.20;92.10;;;;;;5131603;28;20050;-67
2022/07/08 08:07:10;;;;;;;5.70;1.50;;;19.20;91.90;;;;;;5131806;28;20118;-67
2022/07/08 08:09:36;;;;;;;18.45;3.35;;;19.20;92.10;;;;;;5131725;28;20110;-67
2022/07/08 08:12:02;;;;;;;11.27;1.90;;;19.30;92.00;;;;;;5132032;28;20047;-67
2022/07/08 08:14:28;;;;;;;10.13;1.63;;;19.30;91.90;;;;;;5131449;28;20023;-67
2022/07/08 08:16:53;;;;;;;10.48;1.95;;;19.30;91.90;;;;;;5132189;28;20039;-67
2022/07/08 08:19:19;;;;;;;8.48;1.58;;;19.30;91.70;;;;;;5132274;28;20034;-67
2022/07/08 08:21:44;;;;;;;12.45;1.70;;;19.30;91.60;;;;;;5131346;28;20043;-68
2022/07/08 08:24:10;;;;;;;11.68;1.45;;;19.40;92.20;;;;;;5132529;28;20070;-67
2022/07/08 08:26:36;;;;;;;5.05;1.70;;;19.40;91.60;;;;;;5132356;28;20019;-67
2022/07/08 08:29:08;;;;;;;9.15;2.10;;;19.40;91.60;;;;;;5131854;27;20363;-67
2022/07/08 08:31:33;;;;;;;5.70;1.20;;;19.40;91.70;;;;;;5129237;27;20033;-67
2022/07/08 08:34:00;;;;;;;10.30;2.13;;;19.40;91.70;;;;;;5136337;27;20126;-67
2022/07/08 08:36:26;;;;;;;7.22;1.77;;;19.40;91.80;;;;;;5134834;27;20079;-67
2022/07/08 08:38:52;;;;;;;17.23;2.60;;;19.50;91.80;;;;;;5136556;27;20058;-67
2022/07/08 08:41:18;;;;;;;7.82;1.70;;;19.50;91.80;;;;;;5134556;27;20165;-67
2022/07/08 08:43:44;;;;;;;7.53;1.60;;;19.60;92.00;;;;;;5135687;27;20035;-68
2022/07/08 08:46:11;;;;;;;7.50;1.60;;;19.60;91.90;;;;;;5134582;27;20058;-68
2022/07/08 08:48:39;;;;;;;6.75;1.65;;;19.60;91.90;;;;;;5124735;27;20031;-68
2022/07/08 08:51:11;;;;;;;5.80;1.90;;;19.60;91.80;;;;;;5133652;27;20027;-68
2022/07/08 08:53:44;;;;;;;4.77;1.30;;;19.60;91.90;;;;;;5123223;27;20034;-68
2022/07/08 08:56:15;;;;;;;14.77;2.33;;;19.70;91.70;;;;;;5133832;27;20557;-68
2022/07/08 08:58:46;;;;;;;5.38;1.20;;;19.70;92.00;;;;;;5135544;27;20351;-68
2022/07/08 09:01:13;;;;;;;12.43;1.98;;;19.70;92.20;;;;;;5133862;27;20062;-69
2022/07/08 09:03:39;;;;;;;10.18;1.92;;;19.80;91.80;;;;;;5134762;27;20490;-68
2022/07/08 09:06:05;;;;;;;9.32;1.67;;;19.80;91.80;;;;;;5133504;27;20149;-68
2022/07/08 09:08:32;;;;;;;11.93;1.65;;;19.80;91.70;;;;;;5135625;27;20075;-68
2022/07/08 09:10:58;;;;;;;9.27;2.17;;;19.80;91.60;;;;;;5134235;27;20023;-70
2022/07/08 09:13:24;;;;;;;12.73;1.90;;;19.90;91.70;;;;;;5126934;27;20038;-70
2022/07/08 09:15:54;;;;;;;8.75;1.98;;;19.90;91.80;;;;;;5131334;27;20035;-70
2022/07/08 09:18:21;;;;;;;13.00;2.35;;;19.90;92.00;;;;;;5133012;27;20023;-70
2022/07/08 09:20:52;;;;;;;6.53;1.38;;;20.00;91.80;;;;;;5133946;27;20023;-70
2022/07/08 09:23:27;;;;;;;12.30;1.90;;;20.00;91.60;;;;;;5133781;27;20031;-70
2022/07/08 09:25:55;;;;;;;8.95;1.73;;;20.10;91.60;;;;;;5133376;27;20042;-70
2022/07/08 09:28:38;;;;;;;5.95;1.55;;;20.10;91.60;;;;;;5133438;27;20053;-70
2022/07/08 09:31:12;;;;;;;6.30;1.70;;;20.20;91.60;;;;;;5127125;27;20098;-70
2022/07/08 09:33:38;;;;;;;;;;;20.20;91.50;;;;;;5134031;27;20038;-70
2022/07/08 09:36:05;;;;;;;;;;;20.20;91.40;;;;;;5134494;27;19914;-70
2022/07/08 09:38:35;;;;;;;;;;;20.30;91.30;;;;;;5134826;27;19911;-70
2022/07/08 09:41:02;;;;;;;;;;;20.40;91.10;;;;;;5133823;27;19946;-70
2022/07/08 09:43:28;;;;;;;;;;;20.40;91.00;;;;;;5134522;27;19908;-69
2022/07/08 09:46:04;;;;;;;;;;;20.50;91.00;;;;;;5132892;27;19965;-70
2022/07/08 09:48:29;;;;;;;;;;;20.60;91.00;;;;;;5134651;27;20358;-69
2022/07/08 09:50:55;;;;;;;;;;;20.60;90.90;;;;;;5133982;27;19964;-69
2022/07/08 09:53:22;;;;;;;;;;;20.70;90.90;;;;;;5133682;27;20297;-70
2022/07/08 09:55:51;;;;;;;;;;;20.70;90.80;;;;;;5134470;27;20244;-70
2022/07/08 09:58:19;;;;;;;;;;;20.80;90.70;;;;;;5134454;27;20367;-70
2022/07/08 10:00:45;;;;;;;;;;;20.80;90.70;;;;;;5133128;27;20414;-69
2022/07/08 10:03:11;;;;;;;;;;;20.90;90.60;;;;;;5134603;27;19919;-68
2022/07/08 10:05:37;;;;;;;;;;;20.90;90.60;;;;;;5133608;27;20487;-69
2022/07/08 10:08:03;;;;;;;;;;;20.90;90.60;;;;;;5123225;27;20021;-69
2022/07/08 10:10:29;;;;;;;;;;;20.90;90.60;;;;;;5134287;27;20382;-69
2022/07/08 10:12:58;;;;;;;;;;;21.00;90.60;;;;;;5128583;27;19908;-68
2022/07/08 10:15:24;;;;;;;;;;;21.00;90.60;;;;;;5133559;27;20255;-69
2022/07/08 10:17:50;;;;;;;;;;;21.10;90.70;;;;;;5133985;27;19911;-69
2022/07/08 10:20:17;;;;;;;;;;;21.00;90.70;;;;;;5132848;27;20350;-69
2022/07/08 10:22:47;;;;;;;;;;;21.10;90.80;;;;;;5134273;27;19913;-69
2022/07/08 10:25:14;;;;;;;;;;;21.10;90.90;;;;;;5133901;27;19919;-68
2022/07/08 10:27:39;;;;;;;;;;;21.20;91.00;;;;;;5133114;27;19922;-69
2022/07/08 10:30:20;;;;;;;;;;;21.20;91.10;;;;;;5133744;27;19907;-67
2022/07/08 10:32:47;;;;;;;;;;;21.20;91.10;;;;;;5126691;27;19907;-67
2022/07/08 10:35:14;;;;;;;;;;;21.20;91.20;;;;;;5131534;27;20274;-67
2022/07/08 10:37:49;;;;;;;;;;;21.20;91.20;;;;;;5134336;27;20017;-67
2022/07/08 10:40:33;;;;;;;;;;;21.30;91.20;;;;;;5132870;27;19907;-67
2022/07/08 10:43:05;;;;;;;;;;;21.30;91.20;;;;;;5132415;27;19916;-67
2022/07/08 10:46:00;;;;;;;;;;;21.30;91.10;;;;;;5134328;27;19922;-67
2022/07/08 10:48:27;;;;;;;;;;;21.40;91.10;;;;;;5122758;27;19912;-67
2022/07/08 10:50:52;;;;;;;;;;;21.50;91.10;;;;;;5132758;27;19959;-67
2022/07/08 10:53:18;;;;;;;;;;;21.50;91.20;;;;;;5133313;27;20015;-67
2022/07/08 10:55:46;;;;;;;;;;;21.60;91.40;;;;;;5133592;27;19914;-67
2022/07/08 10:58:12;;;;;;;;;;;21.50;91.40;;;;;;5133538;27;19911;-67
2022/07/08 11:00:39;;;;;;;;;;;21.50;91.40;;;;;;5133941;27;19961;-67
2022/07/08 11:03:08;;;;;;;;;;;21.50;91.60;;;;;;5130840;27;19951;-66
2022/07/08 11:05:40;;;;;;;;;;;21.50;91.60;;;;;;5133722;27;19921;-66
2022/07/08 11:08:22;;;;;;;;;;;21.50;91.60;;;;;;5133376;27;19914;-67
2022/07/08 11:10:48;;;;;;;;;;;21.60;91.60;;;;;;5131864;27;20244;-67
2022/07/08 11:13:14;;;;;;;;;;;21.60;91.60;;;;;;5133567;27;19907;-67
2022/07/08 11:15:40;;;;;;;;;;;21.70;91.60;;;;;;5132912;27;19995;-67
2022/07/08 11:18:06;;;;;;;;;;;21.70;91.60;;;;;;5132836;27;19907;-67
2022/07/08 11:20:32;;;;;;;;;;;21.80;91.60;;;;;;5132793;27;19960;-67
2022/07/08 11:23:03;;;;;;;;;;;21.80;91.60;;;;;;5133818;27;19952;-67
2022/07/08 11:25:28;;;;;;;;;;;21.80;92.10;;;;;;5131850;27;19930;-67
2022/07/08 11:27:54;;;;;;;;;;;21.80;91.80;;;;;;5132853;27;20243;-67
2022/07/08 11:30:20;;;;;;;;;;;21.90;91.70;;;;;;5130095;27;19952;-67
2022/07/08 11:32:49;;;;;;;;;;;21.90;91.70;;;;;;5127995;27;19999;-68
2022/07/08 11:35:17;;;;;;;;;;;21.90;91.70;;;;;;5108786;28;19907;-67
2022/07/08 11:37:45;;;;;;;;;;;22.00;91.80;;;;;;5131467;27;19922;-67
2022/07/08 11:40:11;;;;;;;;;;;22.00;91.90;;;;;;5131760;27;20007;-67
2022/07/08 11:42:40;;;;;;;;;;;22.00;91.80;;;;;;5132051;28;19908;-67
2022/07/08 11:45:06;;;;;;;;;;;22.10;91.70;;;;;;5129123;28;20323;-67
2022/07/08 11:47:32;;;;;;;;;;;22.10;91.70;;;;;;5132377;28;20409;-66
2022/07/08 11:50:01;;;;;;;;;;;22.20;91.80;;;;;;5132515;28;19951;-67
2022/07/08 11:52:27;;;;;;;;;;;22.20;92.00;;;;;;5131632;28;20339;-68
2022/07/08 11:54:53;;;;;;;;;;;22.30;91.90;;;;;;5131946;28;19954;-68
2022/07/08 11:57:21;;;;;;;;;;;22.40;91.80;;;;;;5131831;28;19954;-67
2022/07/08 11:59:48;;;;;;;;;;;22.40;91.70;;;;;;5131003;28;20343;-67
2022/07/08 12:02:19;;;;;;;;;;;22.50;91.70;;;;;;5132442;28;19908;-67
2022/07/08 12:04:45;;;;;;;;;;;22.50;91.60;;;;;;5133659;27;19923;-67
2022/07/08 12:07:27;;;;;;;;;;;22.60;91.60;;;;;;5135868;27;20355;-67
2022/07/08 12:09:57;;;;;;;;;;;22.70;91.60;;;;;;5136561;27;19915;-67
2022/07/08 12:12:26;;;;;;;;;;;22.80;91.50;;;;;;5135477;27;19981;-68
2022/07/08 12:14:52;;;;;;;;;;;22.80;91.50;;;;;;5134487;27;19907;-68
2022/07/08 12:17:28;;;;;;;;;;;22.90;91.50;;;;;;5135935;27;20372;-68
2022/07/08 12:19:57;;;;;;;;;;;22.90;91.40;;;;;;5125481;27;20352;-68
2022/07/08 12:22:48;;;;;;;;;;;23.00;91.40;;;;;;5134587;27;20376;-68
2022/07/08 12:25:14;;;;;;;;;;;23.10;91.40;;;;;;5136569;27;20396;-68
2022/07/08 12:27:40;;;;;;;;;;;23.20;91.30;;;;;;5133995;27;19908;-68
2022/07/08 12:30:06;;;;;;;;;;;23.20;91.20;;;;;;5136106;27;19908;-67
2022/07/08 12:32:39;;;;;;;;;;;23.30;91.20;;;;;;5128577;27;19907;-67
2022/07/08 12:35:05;;;;;;;;;;;23.30;91.20;;;;;;5135445;27;19915;-67
2022/07/08 12:37:31;;;;;;;;;;;23.40;91.20;;;;;;5135043;27;19915;-68
2022/07/08 12:39:56;;;;;;;;;;;23.50;91.20;;;;;;5134534;27;19907;-68
2022/07/08 12:42:26;;;;;;;;;;;23.50;91.20;;;;;;5134163;27;19964;-68
2022/07/08 12:44:51;;;;;;;;;;;23.60;91.30;;;;;;5134416;27;19919;-68
2022/07/08 12:47:17;;;;;;;;;;;23.70;91.30;;;;;;5134789;27;20282;-68
2022/07/08 12:49:47;;;;;;;;;;;23.70;91.20;;;;;;5133454;27;19908;-68
2022/07/08 12:52:13;;;;;;;;;;;23.90;91.30;;;;;;5134490;27;19980;-67
2022/07/08 12:54:39;;;;;;;;;;;23.90;91.20;;;;;;5133802;27;20380;-68
2022/07/08 12:57:08;;;;;;;;;;;24.00;91.20;;;;;;5134863;27;19930;-68
2022/07/08 12:59:34;;;;;;;;;;;24.10;91.20;;;;;;5133499;27;20378;-68
2022/07/08 13:02:00;;;;;;;;;;;24.20;91.20;;;;;;5134369;27;19911;-67
2022/07/08 13:04:26;;;;;;;;;;;24.20;91.20;;;;;;5133650;27;20370;-68
2022/07/08 13:06:53;;;;;;;;;;;24.20;91.20;;;;;;5134159;27;19998;-68
2022/07/08 13:09:19;;;;;;;;;;;24.30;91.20;;;;;;5133087;27;19908;-67
2022/07/08 13:11:47;;;;;;;;;;;24.30;91.20;;;;;;5134557;27;19907;-67